sensor_id;sensor_type;location;lat;lon;timestamp;temperature;humidity
6518;DHT22;3292;48.944;9.240;2022-10-16T00:00:40;15.70;99.90
6518;DHT22;3292;48.944;9.240;2022-10-16T00:03:08;15.70;99.90
6518;DHT22;3292;48.944;9.240;2022-10-16T00:05:39;15.70;99.90
6518;DHT22;3292;48.944;9.240;2022-10-16T00:08:07;15.70;99.90
6518;DHT22;3292;48.944;9.240;2022-10-16T00:10:35;15.70;99.90
6518;DHT22;3292;48.944;9.240;2022-10-16T00:13:03;15.70;99.90
6518;DHT22;3292;48.944;9.240;2022-10-16T00:15:30;15.70;99.90
6518;DHT22;3292;48.944;9.240;2022-10-16T00:17:57;15.70;99.90
6518;DHT22;3292;48.944;9.240;2022-10-16T00:20:23;15.70;99.90
6518;DHT22;3292;48.944;9.240;2022-10-16T00:22:50;15.60;99.90
6518;DHT22;3292;48.944;9.240;2022-10-16T00:25:17;15.60;99.90
6518;DHT22;3292;48.944;9.240;2022-10-16T00:27:45;15.60;99.90
6518;DHT22;3292;48.944;9.240;2022-10-16T00:30:12;15.60;99.90
6518;DHT22;3292;48.944;9.240;2022-10-16T00:32:39;15.60;99.90
6518;DHT22;3292;48.944;9.240;2022-10-16T00:35:06;15.60;99.90
6518;DHT22;3292;48.944;9.240;2022-10-16T00:37:33;15.60;99.90
6518;DHT22;3292;48.944;9.240;2022-10-16T00:39:59;15.60;99.90
6518;DHT22;3292;48.944;9.240;2022-10-16T00:42:26;15.60;99.90
6518;DHT22;3292;48.944;9.240;2022-10-16T00:44:56;15.60;99.90
6518;DHT22;3292;48.944;9.240;2022-10-16T00:47:27;15.50;99.90
6518;DHT22;3292;48.944;9.240;2022-10-16T00:49:58;15.50;99.90
6518;DHT22;3292;48.944;9.240;2022-10-16T00:52:26;15.50;99.90
6518;DHT22;3292;48.944;9.240;2022-10-16T00:54:54;15.50;99.90
6518;DHT22;3292;48.944;9.240;2022-10-16T00:57:21;15.50;99.90
6518;DHT22;3292;48.944;9.240;2022-10-16T00:59:48;15.50;99.90
6518;DHT22;3292;48.944;9.240;2022-10-16T01:02:17;15.50;99.90
6518;DHT22;3292;48.944;9.240;2022-10-16T01:04:46;15.50;99.90
6518;DHT22;3292;48.944;9.240;2022-10-16T01:07:20;15.50;99.90
6518;DHT22;3292;48.944;9.240;2022-10-16T01:09:57;15.50;99.90
6518;DHT22;3292;48.944;9.240;2022-10-16T01:12:33;15.50;99.90
6518;DHT22;3292;48.944;9.240;2022-10-16T01:15:08;15.50;99.90
6518;DHT22;3292;48.944;9.240;2022-10-16T01:17:42;15.50;99.90
6518;DHT22;3292;48.944;9.240;2022-10-16T01:20:14;15.60;99.90
6518;DHT22;3292;48.944;9.240;2022-10-16T01:22:55;15.60;99.90
6518;DHT22;3292;48.944;9.240;2022-10-16T01:25:31;15.60;99.90
6518;DHT22;3292;48.944;9.240;2022-10-16T01:28:06;15.60;99.90
6518;DHT22;3292;48.944;9.240;2022-10-16T01:30:36;15.60;99.90
6518;DHT22;3292;48.944;9.240;2022-10-16T01:33:08;15.60;99.90
6518;DHT22;3292;48.944;9.240;2022-10-16T01:35:38;15.60;99.90
6518;DHT22;3292;48.944;9.240;2022-10-16T01:38:10;15.70;99.90
6518;DHT22;3292;48.944;9.240;2022-10-16T01:40:42;15.70;99.90
6518;DHT22;3292;48.944;9.240;2022-10-16T01:43:15;15.70;99.90
6518;DHT22;3292;48.944;9.240;2022-10-16T01:45:44;15.70;99.90
6518;DHT22;3292;48.944;9.240;2022-10-16T01:48:12;15.80;99.90
6518;DHT22;3292;48.944;9.240;2022-10-16T01:50:41;15.80;99.90
6518;DHT22;3292;48.944;9.240;2022-10-16T01:53:12;15.80;99.90
6518;DHT22;3292;48.944;9.240;2022-10-16T01:55:43;15.80;99.90
6518;DHT22;3292;48.944;9.240;2022-10-16T01:58:12;15.80;99.90
6518;DHT22;3292;48.944;9.240;2022-10-16T02:00:42;15.80;99.90
6518;DHT22;3292;48.944;9.240;2022-10-16T02:03:11;15.70;99.90
6518;DHT22;3292;48.944;9.240;2022-10-16T02:05:41;15.70;99.90
6518;DHT22;3292;48.944;9.240;2022-10-16T02:08:09;15.70;99.90
6518;DHT22;3292;48.944;9.240;2022-10-16T02:10:36;15.70;99.90
6518;DHT22;3292;48.944;9.240;2022-10-16T02:13:08;15.70;99.90
6518;DHT22;3292;48.944;9.240;2022-10-16T02:15:37;15.70;99.90
6518;DHT22;3292;48.944;9.240;2022-10-16T02:18:05;15.70;99.90
6518;DHT22;3292;48.944;9.240;2022-10-16T02:20:36;15.70;99.90
6518;DHT22;3292;48.944;9.240;2022-10-16T02:23:07;15.70;99.90
6518;DHT22;3292;48.944;9.240;2022-10-16T02:25:40;15.70;99.90
6518;DHT22;3292;48.944;9.240;2022-10-16T02:28:13;15.70;99.90
6518;DHT22;3292;48.944;9.240;2022-10-16T02:30:46;15.70;99.90
6518;DHT22;3292;48.944;9.240;2022-10-16T02:33:17;15.70;99.90
6518;DHT22;3292;48.944;9.240;2022-10-16T02:35:46;15.70;99.90
6518;DHT22;3292;48.944;9.240;2022-10-16T02:38:14;15.70;99.90
6518;DHT22;3292;48.944;9.240;2022-10-16T02:40:42;15.70;99.90
6518;DHT22;3292;48.944;9.240;2022-10-16T02:43:09;15.70;99.90
6518;DHT22;3292;48.944;9.240;2022-10-16T02:45:37;15.70;99.90
6518;DHT22;3292;48.944;9.240;2022-10-16T02:48:05;15.70;99.90
6518;DHT22;3292;48.944;9.240;2022-10-16T02:50:32;15.70;99.90
6518;DHT22;3292;48.944;9.240;2022-10-16T02:52:59;15.60;99.90
6518;DHT22;3292;48.944;9.240;2022-10-16T02:55:26;15.60;99.90
6518;DHT22;3292;48.944;9.240;2022-10-16T02:57:54;15.60;99.90
6518;DHT22;3292;48.944;9.240;2022-10-16T03:00:21;15.60;99.90
6518;DHT22;3292;48.944;9.240;2022-10-16T03:02:48;15.50;99.90
6518;DHT22;3292;48.944;9.240;2022-10-16T03:05:16;15.50;99.90
6518;DHT22;3292;48.944;9.240;2022-10-16T03:07:43;15.50;99.90
6518;DHT22;3292;48.944;9.240;2022-10-16T03:10:10;15.50;99.90
6518;DHT22;3292;48.944;9.240;2022-10-16T03:12:36;15.50;99.90
6518;DHT22;3292;48.944;9.240;2022-10-16T03:15:04;15.50;99.90
6518;DHT22;3292;48.944;9.240;2022-10-16T03:17:32;15.50;99.90
6518;DHT22;3292;48.944;9.240;2022-10-16T03:19:59;15.50;99.90
6518;DHT22;3292;48.944;9.240;2022-10-16T03:22:27;15.50;99.90
6518;DHT22;3292;48.944;9.240;2022-10-16T03:24:54;15.50;99.90
6518;DHT22;3292;48.944;9.240;2022-10-16T03:27:21;15.60;99.90
6518;DHT22;3292;48.944;9.240;2022-10-16T03:29:47;15.60;99.90
6518;DHT22;3292;48.944;9.240;2022-10-16T03:32:14;15.60;99.90
6518;DHT22;3292;48.944;9.240;2022-10-16T03:34:41;15.50;99.90
6518;DHT22;3292;48.944;9.240;2022-10-16T03:37:08;15.50;99.90
6518;DHT22;3292;48.944;9.240;2022-10-16T03:39:36;15.50;99.90
6518;DHT22;3292;48.944;9.240;2022-10-16T03:42:03;15.40;99.90
6518;DHT22;3292;48.944;9.240;2022-10-16T03:44:29;15.40;99.90
6518;DHT22;3292;48.944;9.240;2022-10-16T03:46:56;15.40;99.90
6518;DHT22;3292;48.944;9.240;2022-10-16T03:49:23;15.30;99.90
6518;DHT22;3292;48.944;9.240;2022-10-16T03:51:50;15.30;99.90
6518;DHT22;3292;48.944;9.240;2022-10-16T03:54:16;15.30;99.90
6518;DHT22;3292;48.944;9.240;2022-10-16T03:56:45;15.20;99.90
6518;DHT22;3292;48.944;9.240;2022-10-16T03:59:11;15.20;99.90
6518;DHT22;3292;48.944;9.240;2022-10-16T04:01:38;15.10;99.90
6518;DHT22;3292;48.944;9.240;2022-10-16T04:04:05;15.20;99.90
6518;DHT22;3292;48.944;9.240;2022-10-16T04:06:32;15.20;99.90
6518;DHT22;3292;48.944;9.240;2022-10-16T04:08:59;15.30;99.90
6518;DHT22;3292;48.944;9.240;2022-10-16T04:11:25;15.20;99.90
6518;DHT22;3292;48.944;9.240;2022-10-16T04:13:54;15.20;99.90
6518;DHT22;3292;48.944;9.240;2022-10-16T04:16:21;15.20;99.90
6518;DHT22;3292;48.944;9.240;2022-10-16T04:18:47;15.10;99.90
6518;DHT22;3292;48.944;9.240;2022-10-16T04:21:14;15.10;99.90
6518;DHT22;3292;48.944;9.240;2022-10-16T04:23:42;15.10;99.90
6518;DHT22;3292;48.944;9.240;2022-10-16T04:26:08;15.00;99.90
6518;DHT22;3292;48.944;9.240;2022-10-16T04:28:35;15.00;99.90
6518;DHT22;3292;48.944;9.240;2022-10-16T04:31:05;14.90;99.90
6518;DHT22;3292;48.944;9.240;2022-10-16T04:33:32;14.90;99.90
6518;DHT22;3292;48.944;9.240;2022-10-16T04:36:00;14.80;99.90
6518;DHT22;3292;48.944;9.240;2022-10-16T04:38:27;14.80;99.90
6518;DHT22;3292;48.944;9.240;2022-10-16T04:40:54;14.80;99.90
6518;DHT22;3292;48.944;9.240;2022-10-16T04:43:21;14.80;99.90
6518;DHT22;3292;48.944;9.240;2022-10-16T04:45:48;14.80;99.90
6518;DHT22;3292;48.944;9.240;2022-10-16T04:48:17;14.70;99.90
6518;DHT22;3292;48.944;9.240;2022-10-16T04:50:44;14.70;99.90
6518;DHT22;3292;48.944;9.240;2022-10-16T04:53:11;14.70;99.90
6518;DHT22;3292;48.944;9.240;2022-10-16T04:55:38;14.70;99.90
6518;DHT22;3292;48.944;9.240;2022-10-16T04:58:05;14.70;99.90
6518;DHT22;3292;48.944;9.240;2022-10-16T05:00:32;14.70;99.90
6518;DHT22;3292;48.944;9.240;2022-10-16T05:02:58;14.70;99.90
6518;DHT22;3292;48.944;9.240;2022-10-16T05:05:27;14.70;99.90
6518;DHT22;3292;48.944;9.240;2022-10-16T05:07:54;14.70;99.90
6518;DHT22;3292;48.944;9.240;2022-10-16T05:10:21;14.70;99.90
6518;DHT22;3292;48.944;9.240;2022-10-16T05:12:48;14.70;99.90
6518;DHT22;3292;48.944;9.240;2022-10-16T05:15:15;14.70;99.90
6518;DHT22;3292;48.944;9.240;2022-10-16T05:17:42;14.80;99.90
6518;DHT22;3292;48.944;9.240;2022-10-16T05:20:09;14.80;99.90
6518;DHT22;3292;48.944;9.240;2022-10-16T05:22:37;14.80;99.90
6518;DHT22;3292;48.944;9.240;2022-10-16T05:25:05;14.80;99.90
6518;DHT22;3292;48.944;9.240;2022-10-16T05:27:32;14.90;99.90
6518;DHT22;3292;48.944;9.240;2022-10-16T05:29:59;14.80;99.90
6518;DHT22;3292;48.944;9.240;2022-10-16T05:32:26;14.80;99.90
6518;DHT22;3292;48.944;9.240;2022-10-16T05:34:53;14.70;99.90
6518;DHT22;3292;48.944;9.240;2022-10-16T05:37:19;14.70;99.90
6518;DHT22;3292;48.944;9.240;2022-10-16T05:39:48;14.70;99.90
6518;DHT22;3292;48.944;9.240;2022-10-16T05:42:14;14.80;99.90
6518;DHT22;3292;48.944;9.240;2022-10-16T05:44:41;14.70;99.90
6518;DHT22;3292;48.944;9.240;2022-10-16T05:47:08;14.70;99.90
6518;DHT22;3292;48.944;9.240;2022-10-16T05:49:36;14.70;99.90
6518;DHT22;3292;48.944;9.240;2022-10-16T05:52:03;14.70;99.90
6518;DHT22;3292;48.944;9.240;2022-10-16T05:54:29;14.70;99.90
6518;DHT22;3292;48.944;9.240;2022-10-16T05:56:58;14.70;99.90
6518;DHT22;3292;48.944;9.240;2022-10-16T05:59:24;14.70;99.90
6518;DHT22;3292;48.944;9.240;2022-10-16T06:01:51;14.70;99.90
6518;DHT22;3292;48.944;9.240;2022-10-16T06:04:19;14.60;99.90
6518;DHT22;3292;48.944;9.240;2022-10-16T06:06:45;14.60;99.90
6518;DHT22;3292;48.944;9.240;2022-10-16T06:09:12;14.60;99.90
6518;DHT22;3292;48.944;9.240;2022-10-16T06:11:39;14.60;99.90
6518;DHT22;3292;48.944;9.240;2022-10-16T06:14:08;14.60;99.90
6518;DHT22;3292;48.944;9.240;2022-10-16T06:16:36;14.60;99.90
6518;DHT22;3292;48.944;9.240;2022-10-16T06:19:04;14.60;99.90
6518;DHT22;3292;48.944;9.240;2022-10-16T06:21:32;14.60;99.90
6518;DHT22;3292;48.944;9.240;2022-10-16T06:23:58;14.70;99.90
6518;DHT22;3292;48.944;9.240;2022-10-16T06:26:27;14.70;99.90
6518;DHT22;3292;48.944;9.240;2022-10-16T06:28:55;14.70;99.90
6518;DHT22;3292;48.944;9.240;2022-10-16T06:31:23;14.70;99.90
6518;DHT22;3292;48.944;9.240;2022-10-16T06:33:53;14.70;99.90
6518;DHT22;3292;48.944;9.240;2022-10-16T06:36:20;14.60;99.90
6518;DHT22;3292;48.944;9.240;2022-10-16T06:38:47;14.70;99.90
6518;DHT22;3292;48.944;9.240;2022-10-16T06:41:15;14.60;99.90
6518;DHT22;3292;48.944;9.240;2022-10-16T06:43:43;14.60;99.90
6518;DHT22;3292;48.944;9.240;2022-10-16T06:46:11;14.60;99.90
6518;DHT22;3292;48.944;9.240;2022-10-16T06:48:40;14.70;99.90
6518;DHT22;3292;48.944;9.240;2022-10-16T06:51:10;14.70;99.90
6518;DHT22;3292;48.944;9.240;2022-10-16T06:53:38;14.70;99.90
6518;DHT22;3292;48.944;9.240;2022-10-16T06:56:10;14.80;99.90
6518;DHT22;3292;48.944;9.240;2022-10-16T06:58:41;14.80;99.90
6518;DHT22;3292;48.944;9.240;2022-10-16T07:01:08;14.80;99.90
6518;DHT22;3292;48.944;9.240;2022-10-16T07:03:37;14.90;99.90
6518;DHT22;3292;48.944;9.240;2022-10-16T07:06:06;14.90;99.90
6518;DHT22;3292;48.944;9.240;2022-10-16T07:08:34;14.90;99.90
6518;DHT22;3292;48.944;9.240;2022-10-16T07:11:03;14.90;99.90
6518;DHT22;3292;48.944;9.240;2022-10-16T07:13:31;15.00;99.90
6518;DHT22;3292;48.944;9.240;2022-10-16T07:16:04;15.00;99.90
6518;DHT22;3292;48.944;9.240;2022-10-16T07:18:31;15.10;99.90
6518;DHT22;3292;48.944;9.240;2022-10-16T07:21:05;15.10;99.90
6518;DHT22;3292;48.944;9.240;2022-10-16T07:23:32;15.10;99.90
6518;DHT22;3292;48.944;9.240;2022-10-16T07:25:59;15.10;99.90
6518;DHT22;3292;48.944;9.240;2022-10-16T07:28:26;15.10;99.90
6518;DHT22;3292;48.944;9.240;2022-10-16T07:30:53;15.10;99.90
6518;DHT22;3292;48.944;9.240;2022-10-16T07:33:20;15.10;99.90
6518;DHT22;3292;48.944;9.240;2022-10-16T07:35:48;15.10;99.90
6518;DHT22;3292;48.944;9.240;2022-10-16T07:38:17;15.10;99.90
6518;DHT22;3292;48.944;9.240;2022-10-16T07:40:44;15.10;99.90
6518;DHT22;3292;48.944;9.240;2022-10-16T07:43:11;15.10;99.90
6518;DHT22;3292;48.944;9.240;2022-10-16T07:45:47;15.10;99.90
6518;DHT22;3292;48.944;9.240;2022-10-16T07:48:15;15.10;99.90
6518;DHT22;3292;48.944;9.240;2022-10-16T07:50:42;15.10;99.90
6518;DHT22;3292;48.944;9.240;2022-10-16T07:53:09;15.20;99.90
6518;DHT22;3292;48.944;9.240;2022-10-16T07:55:38;15.20;99.90
6518;DHT22;3292;48.944;9.240;2022-10-16T07:58:05;15.20;99.90
6518;DHT22;3292;48.944;9.240;2022-10-16T08:00:32;15.20;99.90
6518;DHT22;3292;48.944;9.240;2022-10-16T08:02:59;15.30;99.90
6518;DHT22;3292;48.944;9.240;2022-10-16T08:05:27;15.30;99.90
6518;DHT22;3292;48.944;9.240;2022-10-16T08:07:53;15.40;99.90
6518;DHT22;3292;48.944;9.240;2022-10-16T08:10:23;15.50;99.90
6518;DHT22;3292;48.944;9.240;2022-10-16T08:12:52;15.60;99.90
6518;DHT22;3292;48.944;9.240;2022-10-16T08:15:19;15.70;99.90
6518;DHT22;3292;48.944;9.240;2022-10-16T08:17:54;15.80;99.90
6518;DHT22;3292;48.944;9.240;2022-10-16T08:20:21;16.00;99.90
6518;DHT22;3292;48.944;9.240;2022-10-16T08:22:48;16.30;99.90
6518;DHT22;3292;48.944;9.240;2022-10-16T08:25:15;16.60;99.90
6518;DHT22;3292;48.944;9.240;2022-10-16T08:27:42;16.90;99.90
6518;DHT22;3292;48.944;9.240;2022-10-16T08:30:12;17.10;99.90
6518;DHT22;3292;48.944;9.240;2022-10-16T08:32:39;17.30;99.90
6518;DHT22;3292;48.944;9.240;2022-10-16T08:35:07;17.50;99.90
6518;DHT22;3292;48.944;9.240;2022-10-16T08:37:34;17.80;99.90
6518;DHT22;3292;48.944;9.240;2022-10-16T08:40:01;17.90;99.90
6518;DHT22;3292;48.944;9.240;2022-10-16T08:42:40;17.90;99.90
6518;DHT22;3292;48.944;9.240;2022-10-16T08:45:26;18.00;99.90
6518;DHT22;3292;48.944;9.240;2022-10-16T08:48:05;18.00;99.90
6518;DHT22;3292;48.944;9.240;2022-10-16T08:50:38;18.20;99.90
6518;DHT22;3292;48.944;9.240;2022-10-16T08:53:06;18.30;99.90
6518;DHT22;3292;48.944;9.240;2022-10-16T08:55:41;18.30;99.90
6518;DHT22;3292;48.944;9.240;2022-10-16T08:58:13;18.30;99.90
6518;DHT22;3292;48.944;9.240;2022-10-16T09:00:43;18.20;99.90
6518;DHT22;3292;48.944;9.240;2022-10-16T09:03:18;18.10;99.90
6518;DHT22;3292;48.944;9.240;2022-10-16T09:06:15;17.90;99.90
6518;DHT22;3292;48.944;9.240;2022-10-16T09:08:56;17.90;99.90
6518;DHT22;3292;48.944;9.240;2022-10-16T09:11:33;17.90;99.90
6518;DHT22;3292;48.944;9.240;2022-10-16T09:14:10;17.90;99.90
6518;DHT22;3292;48.944;9.240;2022-10-16T09:16:46;17.90;99.90
6518;DHT22;3292;48.944;9.240;2022-10-16T09:19:20;17.90;99.90
6518;DHT22;3292;48.944;9.240;2022-10-16T09:21:49;17.90;99.90
6518;DHT22;3292;48.944;9.240;2022-10-16T09:24:20;17.90;99.90
6518;DHT22;3292;48.944;9.240;2022-10-16T09:26:49;17.90;99.90
6518;DHT22;3292;48.944;9.240;2022-10-16T09:29:19;18.00;99.90
6518;DHT22;3292;48.944;9.240;2022-10-16T09:31:48;18.10;99.90
6518;DHT22;3292;48.944;9.240;2022-10-16T09:34:22;18.40;99.90
6518;DHT22;3292;48.944;9.240;2022-10-16T09:36:52;18.90;99.90
6518;DHT22;3292;48.944;9.240;2022-10-16T09:39:18;19.20;99.90
6518;DHT22;3292;48.944;9.240;2022-10-16T09:41:45;19.50;99.90
6518;DHT22;3292;48.944;9.240;2022-10-16T09:44:19;19.60;99.90
6518;DHT22;3292;48.944;9.240;2022-10-16T09:46:49;19.80;99.90
6518;DHT22;3292;48.944;9.240;2022-10-16T09:49:22;20.10;99.90
6518;DHT22;3292;48.944;9.240;2022-10-16T09:51:50;20.20;99.90
6518;DHT22;3292;48.944;9.240;2022-10-16T09:54:20;20.40;99.90
6518;DHT22;3292;48.944;9.240;2022-10-16T09:56:48;20.30;99.90
6518;DHT22;3292;48.944;9.240;2022-10-16T09:59:19;20.30;99.90
6518;DHT22;3292;48.944;9.240;2022-10-16T10:01:49;20.60;99.90
6518;DHT22;3292;48.944;9.240;2022-10-16T10:04:17;20.70;99.90
6518;DHT22;3292;48.944;9.240;2022-10-16T10:06:46;20.70;99.90
6518;DHT22;3292;48.944;9.240;2022-10-16T10:09:19;20.80;99.90
6518;DHT22;3292;48.944;9.240;2022-10-16T10:11:52;20.80;99.90
6518;DHT22;3292;48.944;9.240;2022-10-16T10:14:25;20.80;99.90
6518;DHT22;3292;48.944;9.240;2022-10-16T10:17:13;20.70;99.90
6518;DHT22;3292;48.944;9.240;2022-10-16T10:19:42;20.60;99.90
6518;DHT22;3292;48.944;9.240;2022-10-16T10:22:23;20.90;99.90
6518;DHT22;3292;48.944;9.240;2022-10-16T10:25:21;21.10;99.90
6518;DHT22;3292;48.944;9.240;2022-10-16T10:27:59;21.30;99.90
6518;DHT22;3292;48.944;9.240;2022-10-16T10:30:36;21.40;99.90
6518;DHT22;3292;48.944;9.240;2022-10-16T10:33:15;21.50;99.90
6518;DHT22;3292;48.944;9.240;2022-10-16T10:35:51;21.50;99.90
6518;DHT22;3292;48.944;9.240;2022-10-16T10:38:28;21.40;99.90
6518;DHT22;3292;48.944;9.240;2022-10-16T10:41:10;21.30;99.90
6518;DHT22;3292;48.944;9.240;2022-10-16T10:43:51;21.30;99.90
6518;DHT22;3292;48.944;9.240;2022-10-16T10:46:31;21.30;99.90
6518;DHT22;3292;48.944;9.240;2022-10-16T10:49:13;21.20;99.90
6518;DHT22;3292;48.944;9.240;2022-10-16T10:51:50;21.20;99.90
6518;DHT22;3292;48.944;9.240;2022-10-16T10:54:24;21.20;99.90
6518;DHT22;3292;48.944;9.240;2022-10-16T10:56:58;21.30;99.90
6518;DHT22;3292;48.944;9.240;2022-10-16T10:59:37;21.20;99.90
6518;DHT22;3292;48.944;9.240;2022-10-16T11:02:13;21.30;99.90
6518;DHT22;3292;48.944;9.240;2022-10-16T11:05:03;21.30;99.90
6518;DHT22;3292;48.944;9.240;2022-10-16T11:07:36;21.40;99.90
6518;DHT22;3292;48.944;9.240;2022-10-16T11:10:05;21.60;99.90
6518;DHT22;3292;48.944;9.240;2022-10-16T11:12:38;21.60;99.90
6518;DHT22;3292;48.944;9.240;2022-10-16T11:15:12;22.00;99.90
6518;DHT22;3292;48.944;9.240;2022-10-16T11:17:45;22.30;99.90
6518;DHT22;3292;48.944;9.240;2022-10-16T11:20:19;22.60;99.90
6518;DHT22;3292;48.944;9.240;2022-10-16T11:22:50;23.00;99.90
6518;DHT22;3292;48.944;9.240;2022-10-16T11:25:21;23.10;99.90
6518;DHT22;3292;48.944;9.240;2022-10-16T11:27:53;23.40;99.90
6518;DHT22;3292;48.944;9.240;2022-10-16T11:30:23;23.60;99.90
6518;DHT22;3292;48.944;9.240;2022-10-16T11:33:03;23.40;99.90
6518;DHT22;3292;48.944;9.240;2022-10-16T11:35:39;23.60;99.90
6518;DHT22;3292;48.944;9.240;2022-10-16T11:38:13;23.80;99.90
6518;DHT22;3292;48.944;9.240;2022-10-16T11:40:43;23.80;99.90
6518;DHT22;3292;48.944;9.240;2022-10-16T11:43:17;23.90;99.90
6518;DHT22;3292;48.944;9.240;2022-10-16T11:45:50;24.00;99.90
6518;DHT22;3292;48.944;9.240;2022-10-16T11:48:23;23.80;99.90
6518;DHT22;3292;48.944;9.240;2022-10-16T11:50:56;23.70;99.90
6518;DHT22;3292;48.944;9.240;2022-10-16T11:53:33;23.80;99.90
6518;DHT22;3292;48.944;9.240;2022-10-16T11:56:03;24.00;99.90
6518;DHT22;3292;48.944;9.240;2022-10-16T11:58:33;24.10;99.90
6518;DHT22;3292;48.944;9.240;2022-10-16T12:01:15;24.20;99.90
6518;DHT22;3292;48.944;9.240;2022-10-16T12:03:47;24.20;99.90
6518;DHT22;3292;48.944;9.240;2022-10-16T12:06:25;24.20;99.90
6518;DHT22;3292;48.944;9.240;2022-10-16T12:08:55;24.20;99.90
6518;DHT22;3292;48.944;9.240;2022-10-16T12:11:32;24.00;99.90
6518;DHT22;3292;48.944;9.240;2022-10-16T12:14:19;24.20;99.90
6518;DHT22;3292;48.944;9.240;2022-10-16T12:16:54;24.20;99.90
6518;DHT22;3292;48.944;9.240;2022-10-16T12:19:23;24.30;99.90
6518;DHT22;3292;48.944;9.240;2022-10-16T12:21:54;24.20;99.90
6518;DHT22;3292;48.944;9.240;2022-10-16T12:24:33;24.10;99.90
6518;DHT22;3292;48.944;9.240;2022-10-16T12:27:01;24.10;99.90
6518;DHT22;3292;48.944;9.240;2022-10-16T12:29:33;24.00;99.90
6518;DHT22;3292;48.944;9.240;2022-10-16T12:32:01;23.90;99.90
6518;DHT22;3292;48.944;9.240;2022-10-16T12:34:32;23.80;99.90
6518;DHT22;3292;48.944;9.240;2022-10-16T12:37:14;23.70;99.90
6518;DHT22;3292;48.944;9.240;2022-10-16T12:39:41;23.80;99.90
6518;DHT22;3292;48.944;9.240;2022-10-16T12:42:30;23.80;99.90
6518;DHT22;3292;48.944;9.240;2022-10-16T12:44:59;23.80;99.90
6518;DHT22;3292;48.944;9.240;2022-10-16T12:47:38;23.70;99.90
6518;DHT22;3292;48.944;9.240;2022-10-16T12:50:24;23.60;99.90
6518;DHT22;3292;48.944;9.240;2022-10-16T12:52:52;23.40;99.90
6518;DHT22;3292;48.944;9.240;2022-10-16T12:55:21;23.30;99.90
6518;DHT22;3292;48.944;9.240;2022-10-16T12:58:04;23.30;99.90
6518;DHT22;3292;48.944;9.240;2022-10-16T13:00:39;23.40;99.90
6518;DHT22;3292;48.944;9.240;2022-10-16T13:06:33;23.50;99.90
6518;DHT22;3292;48.944;9.240;2022-10-16T13:09:14;23.50;99.90
6518;DHT22;3292;48.944;9.240;2022-10-16T13:12:09;23.40;99.90
6518;DHT22;3292;48.944;9.240;2022-10-16T13:14:52;23.30;99.90
6518;DHT22;3292;48.944;9.240;2022-10-16T13:17:27;23.20;99.90
6518;DHT22;3292;48.944;9.240;2022-10-16T13:20:09;23.10;99.90
6518;DHT22;3292;48.944;9.240;2022-10-16T13:22:41;23.00;99.90
6518;DHT22;3292;48.944;9.240;2022-10-16T13:25:22;22.90;99.90
6518;DHT22;3292;48.944;9.240;2022-10-16T13:27:55;22.90;99.90
6518;DHT22;3292;48.944;9.240;2022-10-16T13:30:24;22.90;99.90
6518;DHT22;3292;48.944;9.240;2022-10-16T13:32:59;22.90;99.90
6518;DHT22;3292;48.944;9.240;2022-10-16T13:35:28;22.90;99.90
6518;DHT22;3292;48.944;9.240;2022-10-16T13:38:20;22.90;99.90
6518;DHT22;3292;48.944;9.240;2022-10-16T13:40:51;22.80;99.90
6518;DHT22;3292;48.944;9.240;2022-10-16T13:43:19;22.70;99.90
6518;DHT22;3292;48.944;9.240;2022-10-16T13:45:55;22.70;99.90
6518;DHT22;3292;48.944;9.240;2022-10-16T13:48:22;22.90;99.90
6518;DHT22;3292;48.944;9.240;2022-10-16T13:50:59;23.20;99.90
6518;DHT22;3292;48.944;9.240;2022-10-16T13:53:26;23.40;99.90
6518;DHT22;3292;48.944;9.240;2022-10-16T13:55:54;23.40;99.90
6518;DHT22;3292;48.944;9.240;2022-10-16T13:58:22;23.20;99.90
6518;DHT22;3292;48.944;9.240;2022-10-16T14:00:54;23.20;99.90
6518;DHT22;3292;48.944;9.240;2022-10-16T14:03:21;23.20;99.90
6518;DHT22;3292;48.944;9.240;2022-10-16T14:05:51;23.30;99.90
6518;DHT22;3292;48.944;9.240;2022-10-16T14:08:18;23.40;99.90
6518;DHT22;3292;48.944;9.240;2022-10-16T14:10:48;23.50;99.90
6518;DHT22;3292;48.944;9.240;2022-10-16T14:13:19;23.60;99.90
6518;DHT22;3292;48.944;9.240;2022-10-16T14:15:47;23.60;99.90
6518;DHT22;3292;48.944;9.240;2022-10-16T14:18:19;23.40;99.90
6518;DHT22;3292;48.944;9.240;2022-10-16T14:20:47;23.30;99.90
6518;DHT22;3292;48.944;9.240;2022-10-16T14:23:23;23.20;99.90
6518;DHT22;3292;48.944;9.240;2022-10-16T14:25:52;23.10;99.90
6518;DHT22;3292;48.944;9.240;2022-10-16T14:28:21;22.90;99.90
6518;DHT22;3292;48.944;9.240;2022-10-16T14:30:50;22.90;99.90
6518;DHT22;3292;48.944;9.240;2022-10-16T14:33:23;22.80;99.90
6518;DHT22;3292;48.944;9.240;2022-10-16T14:36:01;22.70;99.90
6518;DHT22;3292;48.944;9.240;2022-10-16T14:38:29;22.50;99.90
6518;DHT22;3292;48.944;9.240;2022-10-16T14:40:58;22.40;99.90
6518;DHT22;3292;48.944;9.240;2022-10-16T14:43:32;22.30;99.90
6518;DHT22;3292;48.944;9.240;2022-10-16T14:46:01;22.20;99.90
6518;DHT22;3292;48.944;9.240;2022-10-16T14:48:29;22.20;99.90
6518;DHT22;3292;48.944;9.240;2022-10-16T14:50:56;22.20;99.90
6518;DHT22;3292;48.944;9.240;2022-10-16T14:53:23;22.10;99.90
6518;DHT22;3292;48.944;9.240;2022-10-16T14:55:50;22.20;99.90
6518;DHT22;3292;48.944;9.240;2022-10-16T14:58:18;22.20;99.90
6518;DHT22;3292;48.944;9.240;2022-10-16T15:00:47;22.20;99.90
6518;DHT22;3292;48.944;9.240;2022-10-16T15:03:14;22.20;99.90
6518;DHT22;3292;48.944;9.240;2022-10-16T15:05:41;22.20;99.90
6518;DHT22;3292;48.944;9.240;2022-10-16T15:08:08;22.20;99.90
6518;DHT22;3292;48.944;9.240;2022-10-16T15:10:40;22.10;99.90
6518;DHT22;3292;48.944;9.240;2022-10-16T15:13:11;22.10;99.90
6518;DHT22;3292;48.944;9.240;2022-10-16T15:15:42;22.10;99.90
6518;DHT22;3292;48.944;9.240;2022-10-16T15:18:10;22.00;99.90
6518;DHT22;3292;48.944;9.240;2022-10-16T15:20:38;21.90;99.90
6518;DHT22;3292;48.944;9.240;2022-10-16T15:23:09;21.80;99.90
6518;DHT22;3292;48.944;9.240;2022-10-16T15:25:38;21.70;99.90
6518;DHT22;3292;48.944;9.240;2022-10-16T15:28:06;21.80;99.90
6518;DHT22;3292;48.944;9.240;2022-10-16T15:30:33;21.80;99.90
6518;DHT22;3292;48.944;9.240;2022-10-16T15:33:00;21.70;99.90
6518;DHT22;3292;48.944;9.240;2022-10-16T15:35:29;21.70;99.90
6518;DHT22;3292;48.944;9.240;2022-10-16T15:37:57;21.60;99.90
6518;DHT22;3292;48.944;9.240;2022-10-16T15:40:24;21.50;99.90
6518;DHT22;3292;48.944;9.240;2022-10-16T15:42:51;21.30;99.90
6518;DHT22;3292;48.944;9.240;2022-10-16T15:45:18;21.20;99.90
6518;DHT22;3292;48.944;9.240;2022-10-16T15:47:45;21.20;99.90
6518;DHT22;3292;48.944;9.240;2022-10-16T15:50:14;21.10;99.90
6518;DHT22;3292;48.944;9.240;2022-10-16T15:52:45;21.10;99.90
6518;DHT22;3292;48.944;9.240;2022-10-16T15:55:13;21.00;99.90
6518;DHT22;3292;48.944;9.240;2022-10-16T15:57:40;21.00;99.90
6518;DHT22;3292;48.944;9.240;2022-10-16T16:00:10;20.90;99.90
6518;DHT22;3292;48.944;9.240;2022-10-16T16:02:38;20.90;99.90
6518;DHT22;3292;48.944;9.240;2022-10-16T16:05:08;21.00;99.90
6518;DHT22;3292;48.944;9.240;2022-10-16T16:07:38;21.00;99.90
6518;DHT22;3292;48.944;9.240;2022-10-16T16:10:09;20.90;99.90
6518;DHT22;3292;48.944;9.240;2022-10-16T16:12:36;20.90;99.90
6518;DHT22;3292;48.944;9.240;2022-10-16T16:15:04;20.80;99.90
6518;DHT22;3292;48.944;9.240;2022-10-16T16:17:31;20.80;99.90
6518;DHT22;3292;48.944;9.240;2022-10-16T16:19:58;20.80;99.90
6518;DHT22;3292;48.944;9.240;2022-10-16T16:22:25;20.70;99.90
6518;DHT22;3292;48.944;9.240;2022-10-16T16:24:52;20.70;99.90